Izium, Ukraine
Current Conditions -  °F | °C
As of 10:00 PM on Tuesday 27 Jan 2015 (Local Time) from UKHH Reporting Station
Freezing Drizzle Freezing Drizzle  
Wind Chill: 24°   Ceiling: 200
Heat Index: 30°   Visibility: 0.4mi
Dew Point: 28°   Wind: 7mph
Humidity: 93%   Direction: 170°S
Pressure: 30.06"   Gusts: NA
Location:  49.18°N, 37.3°E
Report Text: UKHH 271900Z 17003MPS 140V200 0650 R07/2000U -FZDZ FZFG VV002 M01/M02 Q1018 07690236 TEMPO 0300 -FZRASN BKN001 BKN013CB
Loading
Personal Weather Stations






























Interactive Weather Map New forecast layout! Learn more

10-Day Weather Forecast

Advertisements
Track Severe Weather on mobile